Time;durP1;ratioP1;P1;durP2;ratioP2;P2;SDS_P1;SDS_P2;PMS_P1;PMS_P2;Temp;Humidity;BMP_temperature;BMP_pressure;BME280_temperature;BME280_humidity;BME280_pressure;Samples;Min_cycle;Max_cycle;Signal;HPM_P1;HPM_P2
2020/12/18 00:00:59;;;;;;;22.30;9.60;;;1.60;99.90;;;;;;4189438;28;20459;-54
2020/12/18 00:03:00;;;;;;;22.37;9.17;;;1.60;99.90;;;;;;4187866;28;20911;-54
2020/12/18 00:05:02;;;;;;;18.50;9.27;;;1.70;99.90;;;;;;4188810;28;20493;-54
2020/12/18 00:07:03;;;;;;;23.87;9.50;;;1.70;99.90;;;;;;4190569;28;20463;-54
2020/12/18 00:09:07;;;;;;;18.57;9.70;;;1.70;99.90;;;;;;4188848;28;20522;-54
2020/12/18 00:11:09;;;;;;;25.27;10.77;;;1.70;99.90;;;;;;4190709;28;20512;-57
2020/12/18 00:13:10;;;;;;;23.97;9.60;;;1.80;99.90;;;;;;4190905;28;20799;-54
2020/12/18 00:15:11;;;;;;;23.63;9.60;;;1.80;99.90;;;;;;4188178;28;20545;-54
2020/12/18 00:17:14;;;;;;;26.60;10.23;;;1.80;99.90;;;;;;4189361;28;20520;-54
2020/12/18 00:19:15;;;;;;;23.03;10.90;;;1.90;99.90;;;;;;4188140;28;20482;-55
2020/12/18 00:21:18;;;;;;;22.93;9.67;;;1.80;99.90;;;;;;4189373;28;20491;-54
2020/12/18 00:23:19;;;;;;;23.93;10.53;;;1.80;99.90;;;;;;4189438;28;20473;-54
2020/12/18 00:25:21;;;;;;;20.20;9.87;;;1.80;99.90;;;;;;4190537;28;20503;-57
2020/12/18 00:27:23;;;;;;;21.87;9.93;;;1.80;99.90;;;;;;4190412;28;20476;-54
2020/12/18 00:29:24;;;;;;;20.40;9.33;;;1.90;99.90;;;;;;4189925;28;20474;-54
2020/12/18 00:31:27;;;;;;;23.63;9.07;;;1.80;99.90;;;;;;4190216;28;20474;-54
2020/12/18 00:33:28;;;;;;;20.20;10.30;;;1.90;99.90;;;;;;4191604;28;20530;-54
2020/12/18 00:35:30;;;;;;;25.30;9.53;;;1.80;99.90;;;;;;4193161;28;20471;-54
2020/12/18 00:37:31;;;;;;;20.07;9.67;;;1.80;99.90;;;;;;4194214;28;20470;-54
2020/12/18 00:39:32;;;;;;;16.77;9.10;;;1.80;99.90;;;;;;4191894;28;20500;-54
2020/12/18 00:41:35;;;;;;;22.83;10.00;;;1.90;99.90;;;;;;4192040;28;20497;-54
2020/12/18 00:43:36;;;;;;;19.80;9.73;;;1.80;99.90;;;;;;4192748;28;22413;-54
2020/12/18 00:45:37;;;;;;;16.20;8.60;;;1.80;99.90;;;;;;4191938;28;20472;-54
2020/12/18 00:47:40;;;;;;;24.00;9.90;;;1.80;99.90;;;;;;4192832;28;21950;-53
2020/12/18 00:49:41;;;;;;;24.10;10.53;;;1.80;99.90;;;;;;4191895;28;20466;-54
2020/12/18 00:51:42;;;;;;;22.23;10.03;;;1.80;99.90;;;;;;4192247;28;20473;-53
2020/12/18 00:53:44;;;;;;;21.10;10.27;;;1.70;99.90;;;;;;4191383;28;20991;-54
2020/12/18 00:55:45;;;;;;;22.50;9.87;;;1.80;99.90;;;;;;4191414;28;22234;-54
2020/12/18 00:57:47;;;;;;;19.13;10.07;;;1.80;99.90;;;;;;4191592;28;20526;-53
2020/12/18 00:59:49;;;;;;;16.50;8.43;;;1.80;99.90;;;;;;4192343;28;20477;-54
2020/12/18 01:01:56;;;;;;;17.53;8.37;;;1.80;99.90;;;;;;4190049;28;20470;-54
2020/12/18 01:03:58;;;;;;;16.07;8.30;;;1.80;99.90;;;;;;4191802;28;20468;-53
2020/12/18 01:06:06;;;;;;;18.33;9.13;;;1.80;99.90;;;;;;4192840;28;20488;-53
2020/12/18 01:08:07;;;;;;;17.03;8.87;;;1.80;99.90;;;;;;4191148;28;20496;-53
2020/12/18 01:10:08;;;;;;;19.17;9.00;;;1.80;99.90;;;;;;4190754;28;20483;-54
2020/12/18 01:12:12;;;;;;;15.93;8.00;;;1.80;99.90;;;;;;4192335;28;20476;-53
2020/12/18 01:14:14;;;;;;;17.77;8.70;;;1.80;99.90;;;;;;4193359;28;20478;-53
2020/12/18 01:16:16;;;;;;;17.43;8.60;;;1.80;99.90;;;;;;4192252;28;20563;-53
2020/12/18 01:18:17;;;;;;;17.73;8.80;;;1.80;99.90;;;;;;4191749;28;20478;-53
2020/12/18 01:20:18;;;;;;;17.33;9.53;;;1.80;99.90;;;;;;4192369;28;20473;-54
2020/12/18 01:22:20;;;;;;;42.20;11.10;;;1.80;99.90;;;;;;4189594;28;20488;-54
2020/12/18 01:24:21;;;;;;;23.17;10.87;;;1.80;99.90;;;;;;4192863;28;20572;-53
2020/12/18 01:26:22;;;;;;;21.40;10.03;;;1.80;99.90;;;;;;4190907;28;20547;-53
2020/12/18 01:28:24;;;;;;;24.83;10.73;;;1.70;99.90;;;;;;4192120;28;20591;-54
2020/12/18 01:30:26;;;;;;;27.27;11.77;;;1.70;99.90;;;;;;4192195;28;20487;-54
2020/12/18 01:32:28;;;;;;;23.97;10.43;;;1.70;99.90;;;;;;4190934;28;20498;-54
2020/12/18 01:34:29;;;;;;;32.20;12.70;;;1.70;99.90;;;;;;4190115;28;20480;-53
2020/12/18 01:36:31;;;;;;;23.83;10.10;;;1.70;99.90;;;;;;4192946;28;20603;-53
2020/12/18 01:38:32;;;;;;;24.70;9.83;;;1.70;99.90;;;;;;4191498;28;20470;-54
2020/12/18 01:40:33;;;;;;;21.63;9.77;;;1.60;99.90;;;;;;4192183;28;20526;-53
2020/12/18 01:42:35;;;;;;;21.87;9.77;;;1.60;99.90;;;;;;4191193;28;20475;-53
2020/12/18 01:44:36;;;;;;;19.83;8.53;;;1.70;99.90;;;;;;4191179;28;20534;-53
2020/12/18 01:46:39;;;;;;;18.13;9.13;;;1.70;99.90;;;;;;4191380;28;20482;-53
2020/12/18 01:48:43;;;;;;;18.20;9.40;;;1.70;99.90;;;;;;4191852;28;20505;-54
2020/12/18 01:50:45;;;;;;;22.77;10.20;;;1.70;99.90;;;;;;4192536;28;20479;-53
2020/12/18 01:52:46;;;;;;;20.03;9.53;;;1.70;99.90;;;;;;4191391;28;20486;-53
2020/12/18 01:54:47;;;;;;;22.20;9.37;;;1.70;99.90;;;;;;4191192;28;20476;-53
2020/12/18 01:56:50;;;;;;;23.97;10.07;;;1.70;99.90;;;;;;4190413;28;20470;-54
2020/12/18 01:58:53;;;;;;;21.90;9.83;;;1.70;99.90;;;;;;4188744;28;20538;-54
2020/12/18 02:00:55;;;;;;;23.27;9.07;;;1.80;99.90;;;;;;4192005;28;20521;-53
2020/12/18 02:02:58;;;;;;;19.53;9.80;;;1.80;99.90;;;;;;4192161;28;20945;-53
2020/12/18 02:04:59;;;;;;;20.07;9.87;;;1.80;99.90;;;;;;4190788;28;20495;-53
2020/12/18 02:07:03;;;;;;;22.60;10.20;;;1.80;99.90;;;;;;4190038;28;20491;-54
2020/12/18 02:09:05;;;;;;;18.80;8.67;;;1.80;99.90;;;;;;4189214;28;20491;-53
2020/12/18 02:11:07;;;;;;;21.50;9.13;;;1.80;99.90;;;;;;4190319;28;20472;-53
2020/12/18 02:13:10;;;;;;;23.97;10.70;;;1.80;99.90;;;;;;4191751;28;20486;-59
2020/12/18 02:15:12;;;;;;;20.90;10.07;;;1.80;99.90;;;;;;4191155;28;20970;-54
2020/12/18 02:17:14;;;;;;;21.97;9.93;;;1.80;99.90;;;;;;4190710;28;20487;-54
2020/12/18 02:19:19;;;;;;;23.93;9.80;;;1.70;99.90;;;;;;4189923;28;20484;-54
2020/12/18 02:21:20;;;;;;;19.37;8.60;;;1.60;99.90;;;;;;4190147;28;21369;-54
2020/12/18 02:23:22;;;;;;;19.10;9.00;;;1.40;99.90;;;;;;4191328;28;20480;-54
2020/12/18 02:25:24;;;;;;;16.63;8.27;;;1.30;99.90;;;;;;4191096;28;20485;-53
2020/12/18 02:27:27;;;;;;;17.63;7.67;;;1.20;99.90;;;;;;4190550;28;20799;-54
2020/12/18 02:29:28;;;;;;;15.73;7.33;;;1.10;99.90;;;;;;4190065;28;22248;-57
2020/12/18 02:31:29;;;;;;;20.40;7.60;;;1.10;99.90;;;;;;4191115;28;20468;-54
2020/12/18 02:33:31;;;;;;;17.40;7.93;;;1.00;99.90;;;;;;4191735;28;20641;-54
2020/12/18 02:35:33;;;;;;;18.97;7.77;;;1.00;99.90;;;;;;4187608;28;20482;-57
2020/12/18 02:37:35;;;;;;;16.00;7.50;;;1.00;99.90;;;;;;4190567;28;21057;-54
2020/12/18 02:39:36;;;;;;;22.83;9.80;;;1.00;99.90;;;;;;4190350;28;20466;-53
2020/12/18 02:41:37;;;;;;;17.80;8.90;;;1.10;99.90;;;;;;4189070;28;20590;-54
2020/12/18 02:43:40;;;;;;;22.03;9.60;;;1.10;99.90;;;;;;4189785;28;20937;-54
2020/12/18 02:45:41;;;;;;;21.17;9.40;;;1.10;99.90;;;;;;4188349;28;20527;-54
2020/12/18 02:47:42;;;;;;;22.60;9.50;;;1.10;99.90;;;;;;4191465;28;20486;-53
2020/12/18 02:49:43;;;;;;;21.03;9.17;;;1.20;99.90;;;;;;4190295;28;20469;-53
2020/12/18 02:51:45;;;;;;;19.47;9.83;;;1.20;99.90;;;;;;4190489;28;20469;-54
2020/12/18 02:53:46;;;;;;;18.20;8.60;;;1.20;99.90;;;;;;4189626;28;20465;-53
2020/12/18 02:55:48;;;;;;;21.20;9.47;;;1.10;99.90;;;;;;4190639;28;20493;-53
2020/12/18 02:57:49;;;;;;;21.97;9.40;;;1.10;99.90;;;;;;4190497;28;20495;-53
2020/12/18 02:59:51;;;;;;;20.10;9.67;;;1.10;99.90;;;;;;4190122;28;21188;-53
2020/12/18 03:01:52;;;;;;;21.43;9.77;;;1.10;99.90;;;;;;4188977;28;20475;-53
2020/12/18 03:03:54;;;;;;;21.43;9.97;;;1.10;99.90;;;;;;4189394;28;20475;-54
2020/12/18 03:05:55;;;;;;;20.53;9.03;;;1.10;99.90;;;;;;4189165;28;20996;-54
2020/12/18 03:07:57;;;;;;;23.33;10.00;;;1.10;99.90;;;;;;4189566;28;20513;-53
2020/12/18 03:09:58;;;;;;;21.07;9.13;;;1.10;99.90;;;;;;4189116;28;20466;-54
2020/12/18 03:11:59;;;;;;;21.90;8.90;;;1.10;99.90;;;;;;4190016;28;20471;-53
2020/12/18 03:14:01;;;;;;;20.57;9.87;;;1.10;99.90;;;;;;4191350;28;20987;-54
2020/12/18 03:16:03;;;;;;;22.90;9.93;;;1.10;99.90;;;;;;4190277;28;20528;-55
2020/12/18 03:18:04;;;;;;;23.30;9.80;;;1.00;99.90;;;;;;4189498;28;20535;-54
2020/12/18 03:20:05;;;;;;;34.20;10.37;;;1.00;99.90;;;;;;4191661;28;20908;-54
2020/12/18 03:22:07;;;;;;;24.47;10.70;;;0.90;99.90;;;;;;4190823;28;20483;-53
2020/12/18 03:24:08;;;;;;;22.73;9.93;;;0.90;99.90;;;;;;4190233;28;20518;-54
2020/12/18 03:26:09;;;;;;;21.73;10.43;;;0.90;99.90;;;;;;4190969;28;20481;-55
2020/12/18 03:28:11;;;;;;;23.27;10.03;;;0.90;99.90;;;;;;4188328;28;20488;-54
2020/12/18 03:30:12;;;;;;;30.13;10.27;;;0.80;99.90;;;;;;4187724;28;21107;-54
2020/12/18 03:32:14;;;;;;;23.73;9.80;;;0.80;99.90;;;;;;4189111;28;20576;-57
2020/12/18 03:34:15;;;;;;;20.93;9.93;;;0.80;99.90;;;;;;4190093;28;21104;-53
2020/12/18 03:36:17;;;;;;;22.73;9.77;;;0.80;99.90;;;;;;4190698;28;20469;-53
2020/12/18 03:38:18;;;;;;;23.63;9.73;;;0.80;99.90;;;;;;4190909;28;20480;-53
2020/12/18 03:40:20;;;;;;;22.93;9.60;;;0.90;99.90;;;;;;4188953;28;20466;-53
2020/12/18 03:42:21;;;;;;;21.43;9.60;;;0.80;99.90;;;;;;4190834;28;20471;-54
2020/12/18 03:44:22;;;;;;;20.67;9.37;;;0.80;99.90;;;;;;4189388;28;20474;-53
2020/12/18 03:46:23;;;;;;;21.00;8.63;;;0.80;99.90;;;;;;4190034;28;20972;-53
2020/12/18 03:48:26;;;;;;;18.33;8.80;;;0.90;99.90;;;;;;4189424;28;20491;-53
2020/12/18 03:50:28;;;;;;;18.47;8.23;;;0.90;99.90;;;;;;4190299;28;20468;-54
2020/12/18 03:52:30;;;;;;;21.53;8.83;;;0.90;99.90;;;;;;4190909;28;20470;-53
2020/12/18 03:54:31;;;;;;;19.63;8.77;;;0.90;99.90;;;;;;4191383;28;20899;-53
2020/12/18 03:56:32;;;;;;;17.43;8.27;;;0.90;99.90;;;;;;4191543;28;20512;-54
2020/12/18 03:58:34;;;;;;;19.17;7.87;;;0.90;99.90;;;;;;4190022;28;20467;-54
2020/12/18 04:00:35;;;;;;;23.50;8.30;;;0.90;99.90;;;;;;4189379;28;20471;-54
2020/12/18 04:02:36;;;;;;;17.00;7.93;;;0.90;99.90;;;;;;4191302;28;20467;-54
2020/12/18 04:04:38;;;;;;;19.43;7.67;;;0.90;99.90;;;;;;4189210;28;20479;-52
2020/12/18 04:06:40;;;;;;;21.20;8.90;;;0.90;99.90;;;;;;4192511;28;21192;-54
2020/12/18 04:08:41;;;;;;;18.40;8.63;;;1.00;99.90;;;;;;4193110;28;20488;-54
2020/12/18 04:10:42;;;;;;;16.77;8.20;;;1.00;99.90;;;;;;4192419;28;20471;-54
2020/12/18 04:12:44;;;;;;;20.27;8.53;;;1.00;99.90;;;;;;4193119;28;20502;-54
2020/12/18 04:14:45;;;;;;;15.07;7.60;;;1.00;99.90;;;;;;4193857;28;20786;-53
2020/12/18 04:16:46;;;;;;;21.30;7.93;;;1.00;99.90;;;;;;4192479;28;20467;-53
2020/12/18 04:18:48;;;;;;;17.37;8.23;;;1.00;99.90;;;;;;4194594;28;20463;-54
2020/12/18 04:20:50;;;;;;;16.13;7.97;;;1.10;99.90;;;;;;4192304;28;20993;-54
2020/12/18 04:22:52;;;;;;;18.13;7.80;;;1.10;99.90;;;;;;4191920;28;20464;-54
2020/12/18 04:24:53;;;;;;;17.20;7.93;;;1.10;99.90;;;;;;4191651;28;20480;-54
2020/12/18 04:26:55;;;;;;;19.53;8.07;;;1.10;99.90;;;;;;4192487;28;20477;-54
2020/12/18 04:28:56;;;;;;;20.43;7.43;;;1.10;99.90;;;;;;4192201;28;20493;-54
2020/12/18 04:30:58;;;;;;;16.33;7.17;;;1.10;99.90;;;;;;4193150;28;20465;-54
2020/12/18 04:33:00;;;;;;;14.67;6.90;;;1.10;99.90;;;;;;4195676;28;20570;-53
2020/12/18 04:35:01;;;;;;;13.97;7.07;;;1.10;99.90;;;;;;4193341;28;20469;-54
2020/12/18 04:37:03;;;;;;;32.50;7.63;;;1.10;99.90;;;;;;4193525;28;20560;-54
2020/12/18 04:39:06;;;;;;;16.30;7.20;;;1.10;99.90;;;;;;4190732;28;20464;-53
2020/12/18 04:41:08;;;;;;;18.60;6.77;;;1.10;99.90;;;;;;4193154;28;20553;-54
2020/12/18 04:43:09;;;;;;;18.20;6.87;;;1.10;99.90;;;;;;4193262;28;20475;-55
2020/12/18 04:45:12;;;;;;;15.13;6.70;;;1.10;99.90;;;;;;4191318;28;20471;-54
2020/12/18 04:47:15;;;;;;;13.57;6.57;;;1.20;99.90;;;;;;4191446;28;20997;-55
2020/12/18 04:49:17;;;;;;;14.57;6.93;;;1.20;99.90;;;;;;4190535;28;20492;-54
2020/12/18 04:51:20;;;;;;;14.17;6.10;;;1.20;99.90;;;;;;4191898;28;20510;-54
2020/12/18 04:53:28;;;;;;;14.73;7.00;;;1.20;99.90;;;;;;4192277;28;20480;-53
2020/12/18 04:55:29;;;;;;;14.83;6.90;;;1.20;99.90;;;;;;4191457;28;20661;-54
2020/12/18 04:57:34;;;;;;;14.43;7.30;;;1.20;99.90;;;;;;4190595;28;20465;-54
2020/12/18 04:59:37;;;;;;;16.30;7.17;;;1.20;99.90;;;;;;4193604;28;20556;-54
2020/12/18 05:01:38;;;;;;;12.67;5.90;;;1.20;99.90;;;;;;4192436;28;20573;-55
2020/12/18 05:03:39;;;;;;;14.90;7.17;;;1.20;99.90;;;;;;4191016;28;20868;-55
2020/12/18 05:05:40;;;;;;;12.70;6.40;;;1.20;99.90;;;;;;4193927;28;20504;-55
2020/12/18 05:07:42;;;;;;;11.33;6.13;;;1.20;99.90;;;;;;4191777;28;20484;-52
2020/12/18 05:09:50;;;;;;;14.77;6.47;;;1.20;99.90;;;;;;4192698;28;20468;-52
2020/12/18 05:11:52;;;;;;;13.77;6.87;;;1.20;99.90;;;;;;4193018;28;20976;-53
2020/12/18 05:13:55;;;;;;;17.40;6.63;;;1.20;99.90;;;;;;4191744;28;20467;-53
2020/12/18 05:15:59;;;;;;;15.93;7.67;;;1.20;99.90;;;;;;4192265;28;20475;-53
2020/12/18 05:18:01;;;;;;;13.07;6.17;;;1.20;99.90;;;;;;4190193;28;20467;-53
2020/12/18 05:20:02;;;;;;;11.20;6.37;;;1.20;99.90;;;;;;4190011;28;20483;-53
2020/12/18 05:22:05;;;;;;;15.07;6.77;;;1.20;99.90;;;;;;4191657;28;20483;-53
2020/12/18 05:24:06;;;;;;;11.47;6.07;;;1.30;99.90;;;;;;4191900;28;20474;-53
2020/12/18 05:26:09;;;;;;;14.23;6.77;;;1.30;99.90;;;;;;4191516;28;20466;-53
2020/12/18 05:28:18;;;;;;;13.57;7.00;;;1.30;99.90;;;;;;4191299;28;20488;-53
2020/12/18 05:30:23;;;;;;;13.07;6.67;;;1.30;99.90;;;;;;4193380;28;20467;-53
2020/12/18 05:32:24;;;;;;;18.53;7.50;;;1.30;99.90;;;;;;4190766;28;20485;-53
2020/12/18 05:34:26;;;;;;;20.03;7.00;;;1.30;99.90;;;;;;4192199;28;20461;-53
2020/12/18 05:36:28;;;;;;;33.83;9.07;;;1.40;99.90;;;;;;4192651;28;20852;-53
2020/12/18 05:38:29;;;;;;;46.37;9.00;;;1.30;99.90;;;;;;4190832;28;20480;-53
2020/12/18 05:40:31;;;;;;;19.77;7.60;;;1.30;99.90;;;;;;4190139;28;20631;-54
2020/12/18 05:42:41;;;;;;;19.83;7.80;;;1.30;99.90;;;;;;4191236;28;20535;-53
2020/12/18 05:44:43;;;;;;;15.20;7.37;;;1.30;99.90;;;;;;4189076;28;20475;-53
2020/12/18 05:46:44;;;;;;;13.07;6.83;;;1.30;99.90;;;;;;4191899;28;20490;-53
2020/12/18 05:48:54;;;;;;;14.17;6.93;;;1.30;99.90;;;;;;4192168;28;20847;-54
2020/12/18 05:50:55;;;;;;;13.53;6.80;;;1.20;99.90;;;;;;4190201;28;20963;-54
2020/12/18 05:52:58;;;;;;;14.63;7.00;;;1.30;99.90;;;;;;4190267;28;20470;-54
2020/12/18 05:54:59;;;;;;;15.00;6.70;;;1.30;99.90;;;;;;4190236;28;20490;-54
2020/12/18 05:57:10;;;;;;;14.87;6.93;;;1.30;99.90;;;;;;4190957;28;22506;-53
2020/12/18 05:59:14;;;;;;;16.73;7.13;;;1.30;99.90;;;;;;4191096;28;20461;-54
2020/12/18 06:01:17;;;;;;;14.67;6.23;;;1.30;99.90;;;;;;4190647;28;20589;-54
2020/12/18 06:03:20;;;;;;;15.37;6.43;;;1.30;99.90;;;;;;4191466;28;21162;-53
2020/12/18 06:05:23;;;;;;;16.73;7.40;;;1.30;99.90;;;;;;4192212;28;20492;-54
2020/12/18 06:07:25;;;;;;;12.90;6.20;;;1.30;99.90;;;;;;4191250;28;20469;-54
2020/12/18 06:09:27;;;;;;;12.97;6.23;;;1.30;99.90;;;;;;4190087;28;20485;-53
2020/12/18 06:11:31;;;;;;;16.27;6.27;;;1.30;99.90;;;;;;4190341;28;20469;-54
2020/12/18 06:13:37;;;;;;;15.10;6.17;;;1.30;99.90;;;;;;4189409;28;21032;-54
2020/12/18 06:15:41;;;;;;;12.93;6.37;;;1.30;99.90;;;;;;4190454;28;20469;-55
2020/12/18 06:17:44;;;;;;;16.83;6.77;;;1.40;99.90;;;;;;4190535;28;20478;-53
2020/12/18 06:19:45;;;;;;;12.03;6.27;;;1.40;99.90;;;;;;4191472;28;20470;-52
2020/12/18 06:21:51;;;;;;;14.97;6.27;;;1.40;99.90;;;;;;4190359;28;20480;-56
2020/12/18 06:23:54;;;;;;;11.23;5.60;;;1.50;99.90;;;;;;4188597;28;20503;-54
2020/12/18 06:25:55;;;;;;;12.07;5.97;;;1.50;99.90;;;;;;4190362;28;20480;-54
2020/12/18 06:27:58;;;;;;;13.63;6.70;;;1.50;99.90;;;;;;4188137;28;20472;-53
2020/12/18 06:30:08;;;;;;;22.70;7.60;;;1.50;99.90;;;;;;4191427;28;20496;-53
2020/12/18 06:32:24;;;;;;;13.33;6.60;;;1.40;99.90;;;;;;4189203;28;20480;-53
2020/12/18 06:34:27;;;;;;;14.30;6.80;;;1.40;99.90;;;;;;4191153;28;20619;-53
2020/12/18 06:36:57;;;;;;;14.40;6.70;;;1.40;99.90;;;;;;4187948;28;20473;-53
2020/12/18 06:38:59;;;;;;;12.77;6.80;;;1.40;99.90;;;;;;4190001;28;20580;-53
2020/12/18 06:41:00;;;;;;;13.10;6.70;;;1.40;99.90;;;;;;4191842;28;20981;-53
2020/12/18 06:43:01;;;;;;;12.70;6.37;;;1.40;99.90;;;;;;4190571;28;20553;-58
2020/12/18 06:45:09;;;;;;;13.97;6.17;;;1.40;99.90;;;;;;4190252;28;20731;-58
2020/12/18 06:47:14;;;;;;;16.07;6.90;;;1.40;99.90;;;;;;4190406;28;20461;-58
2020/12/18 06:49:16;;;;;;;14.07;6.63;;;1.40;99.90;;;;;;4190786;28;20482;-58
2020/12/18 06:51:31;;;;;;;18.87;7.30;;;1.40;99.90;;;;;;4190238;28;20484;-58
2020/12/18 06:53:32;;;;;;;17.13;7.27;;;1.50;99.90;;;;;;4188857;28;20479;-58
2020/12/18 06:55:39;;;;;;;12.70;6.40;;;1.40;99.90;;;;;;4189852;28;20467;-58
2020/12/18 06:57:40;;;;;;;17.23;7.67;;;1.40;99.90;;;;;;4189662;28;20467;-58
2020/12/18 06:59:42;;;;;;;14.27;6.70;;;1.40;99.90;;;;;;4187964;28;20471;-58
2020/12/18 07:01:43;;;;;;;15.57;7.07;;;1.40;99.90;;;;;;4190909;28;20485;-58
2020/12/18 07:03:46;;;;;;;25.93;8.93;;;1.40;99.90;;;;;;4197085;28;20948;-58
2020/12/18 07:05:58;;;;;;;17.80;7.83;;;1.50;99.90;;;;;;4188621;28;22392;-58
2020/12/18 07:08:01;;;;;;;25.37;10.00;;;1.50;99.90;;;;;;4187619;28;20461;-58
2020/12/18 07:10:03;;;;;;;18.50;8.60;;;1.50;99.90;;;;;;4189680;28;20219;-58
2020/12/18 07:12:04;;;;;;;21.00;8.40;;;1.50;99.90;;;;;;4189219;28;20474;-59
2020/12/18 07:14:07;;;;;;;19.23;7.97;;;1.50;99.90;;;;;;4188246;28;20904;-58
2020/12/18 07:16:10;;;;;;;18.57;7.50;;;1.50;99.90;;;;;;4188105;28;20465;-59
2020/12/18 07:18:13;;;;;;;13.60;6.30;;;1.50;99.90;;;;;;4189757;28;20503;-59
2020/12/18 07:20:15;;;;;;;13.73;7.00;;;1.50;99.90;;;;;;4188275;28;20486;-59
2020/12/18 07:22:21;;;;;;;15.67;6.53;;;1.50;99.90;;;;;;4186720;28;20474;-59
2020/12/18 07:24:25;;;;;;;22.67;7.33;;;1.50;99.90;;;;;;4188584;28;20464;-59
2020/12/18 07:26:26;;;;;;;26.33;7.43;;;1.50;99.90;;;;;;4189497;28;20855;-59
2020/12/18 07:28:29;;;;;;;19.23;6.83;;;1.50;99.90;;;;;;4190758;28;20508;-59
2020/12/18 07:30:32;;;;;;;17.30;6.87;;;1.50;99.90;;;;;;4191081;28;20593;-59
2020/12/18 07:32:33;;;;;;;19.97;9.20;;;1.50;99.90;;;;;;4187084;28;20480;-59
2020/12/18 07:34:35;;;;;;;24.17;9.00;;;1.50;99.90;;;;;;4188768;28;20479;-58
2020/12/18 07:36:36;;;;;;;19.50;8.33;;;1.60;99.90;;;;;;4188171;28;21490;-58
2020/12/18 07:38:38;;;;;;;22.00;8.43;;;1.50;99.90;;;;;;4188493;28;20475;-58
2020/12/18 07:40:40;;;;;;;21.03;7.33;;;1.50;99.90;;;;;;4189975;28;20478;-59
2020/12/18 07:42:41;;;;;;;25.03;8.53;;;1.60;99.90;;;;;;4187966;28;20476;-59
2020/12/18 07:44:43;;;;;;;20.80;8.80;;;1.60;99.90;;;;;;4190078;28;20464;-59
2020/12/18 07:46:46;;;;;;;30.37;8.40;;;1.60;99.90;;;;;;4187534;28;20477;-58
2020/12/18 07:48:48;;;;;;;19.10;8.02;;;1.60;99.90;;;;;;4188660;28;20463;-59
2020/12/18 07:50:57;;;;;;;17.87;7.80;;;1.60;99.90;;;;;;4189250;28;20212;-59
2020/12/18 07:53:06;;;;;;;27.05;10.25;;;1.60;99.90;;;;;;4185375;28;20910;-59
2020/12/18 07:55:12;;;;;;;26.30;10.48;;;1.70;99.90;;;;;;4185358;28;21036;-59
2020/12/18 07:57:14;;;;;;;20.43;8.17;;;1.70;99.90;;;;;;4190078;28;20295;-59
2020/12/18 07:59:15;;;;;;;22.10;8.00;;;1.70;99.90;;;;;;4190875;28;20466;-59
2020/12/18 08:01:18;;;;;;;21.30;7.00;;;1.70;99.90;;;;;;4188154;28;20683;-58
2020/12/18 08:03:20;;;;;;;11.93;6.17;;;1.80;99.90;;;;;;4187704;28;20463;-58
2020/12/18 08:05:21;;;;;;;19.50;7.78;;;1.80;99.90;;;;;;4183883;28;20459;-58
2020/12/18 08:07:23;;;;;;;22.38;9.45;;;1.80;99.90;;;;;;4183825;28;20459;-58
2020/12/18 08:09:25;;;;;;;16.83;7.33;;;1.90;99.90;;;;;;4186415;28;20698;-58
2020/12/18 08:11:28;;;;;;;17.50;7.57;;;2.00;99.90;;;;;;4186446;28;21118;-59
2020/12/18 08:13:31;;;;;;;22.67;7.63;;;2.00;99.90;;;;;;4187856;28;20473;-59
2020/12/18 08:15:33;;;;;;;15.33;6.87;;;2.00;99.90;;;;;;4188251;28;20469;-59
2020/12/18 08:17:35;;;;;;;16.50;6.87;;;2.00;99.90;;;;;;4187360;28;20468;-58
2020/12/18 08:19:36;;;;;;;20.53;7.80;;;2.00;99.90;;;;;;4187603;28;20488;-59
2020/12/18 08:21:40;;;;;;;18.70;7.60;;;2.00;99.90;;;;;;4186419;28;20472;-58
2020/12/18 08:23:48;;;;;;;16.70;6.77;;;2.00;99.90;;;;;;4188837;28;20303;-59
2020/12/18 08:25:51;;;;;;;19.90;8.18;;;2.10;99.90;;;;;;4191162;28;20454;-58
2020/12/18 08:27:56;;;;;;;25.98;11.00;;;2.10;99.90;;;;;;4185778;28;20463;-58
2020/12/18 08:29:58;;;;;;;23.17;8.97;;;2.20;99.90;;;;;;4188767;28;20578;-59
2020/12/18 08:32:03;;;;;;;24.65;10.43;;;2.30;99.90;;;;;;4185885;28;20464;-63
2020/12/18 08:34:08;;;;;;;19.73;7.97;;;2.40;99.90;;;;;;4188926;28;20217;-59
2020/12/18 08:36:09;;;;;;;19.95;8.75;;;2.40;99.90;;;;;;4184859;28;20474;-59
2020/12/18 08:38:11;;;;;;;20.83;8.80;;;2.40;99.90;;;;;;4188227;28;20952;-60
2020/12/18 08:40:20;;;;;;;19.03;7.47;;;2.40;99.90;;;;;;4189400;28;20470;-60
2020/12/18 08:42:22;;;;;;;13.70;6.77;;;2.50;99.90;;;;;;4186312;28;20466;-59
2020/12/18 08:44:28;;;;;;;19.53;6.97;;;2.50;99.90;;;;;;4190385;28;20478;-59
2020/12/18 08:46:33;;;;;;;17.73;7.60;;;2.50;99.90;;;;;;4186773;28;20570;-59
2020/12/18 08:48:35;;;;;;;22.80;9.00;;;2.60;99.90;;;;;;4183983;28;20539;-59
2020/12/18 08:50:37;;;;;;;17.77;7.30;;;2.70;99.90;;;;;;4186641;28;20231;-59
2020/12/18 08:52:39;;;;;;;16.43;7.07;;;2.90;99.90;;;;;;4188470;28;20474;-59
2020/12/18 08:54:41;;;;;;;14.80;6.10;;;2.90;99.90;;;;;;4194723;28;20483;-59
2020/12/18 08:56:42;;;;;;;12.30;6.30;;;3.00;99.90;;;;;;4191408;28;20861;-59
2020/12/18 08:58:43;;;;;;;16.88;7.97;;;3.10;99.90;;;;;;4189643;28;20457;-59
2020/12/18 09:00:45;;;;;;;17.13;7.77;;;3.20;99.90;;;;;;4190856;28;20237;-59
2020/12/18 09:02:56;;;;;;;15.27;6.17;;;3.20;99.90;;;;;;4191451;28;20480;-59
2020/12/18 09:05:17;;;;;;;37.60;17.87;;;3.30;99.90;;;;;;4190936;28;20945;-59
2020/12/18 09:07:18;;;;;;;48.92;24.35;;;3.30;99.90;;;;;;4190373;28;20555;-59
2020/12/18 09:09:20;;;;;;;38.65;20.65;;;3.30;99.90;;;;;;4188304;28;20986;-60
2020/12/18 09:11:23;;;;;;;29.70;15.00;;;3.40;99.90;;;;;;4189238;28;20519;-59
2020/12/18 09:13:26;;;;;;;23.50;10.93;;;3.50;99.90;;;;;;4189699;28;20253;-59
2020/12/18 09:15:29;;;;;;;22.03;9.63;;;3.50;99.90;;;;;;4189857;28;20471;-59
2020/12/18 09:17:31;;;;;;;18.13;9.20;;;3.50;99.90;;;;;;4190133;28;20472;-59
2020/12/18 09:19:33;;;;;;;16.83;8.30;;;3.60;99.90;;;;;;4189394;28;20477;-59
2020/12/18 09:21:35;;;;;;;17.63;7.97;;;3.60;99.90;;;;;;4189951;28;20457;-58
2020/12/18 09:23:37;;;;;;;14.77;7.30;;;3.70;99.90;;;;;;4194062;28;20210;-58
2020/12/18 09:25:41;;;;;;;13.17;7.03;;;3.70;99.90;;;;;;4190473;28;20536;-58
2020/12/18 09:27:42;;;;;;;16.37;6.77;;;3.80;99.90;;;;;;4188677;28;20476;-59
2020/12/18 09:29:43;;;;;;;11.53;6.50;;;3.90;99.90;;;;;;4189793;28;20490;-59
2020/12/18 09:31:46;;;;;;;18.93;7.70;;;4.00;99.90;;;;;;4185653;28;20529;-60
2020/12/18 09:33:48;;;;;;;20.83;8.70;;;4.00;99.90;;;;;;4187350;28;20804;-59
2020/12/18 09:35:51;;;;;;;38.38;18.30;;;4.00;99.90;;;;;;4186260;28;20453;-59
2020/12/18 09:37:52;;;;;;;31.37;15.40;;;4.10;99.90;;;;;;4189358;28;20225;-59
2020/12/18 09:39:54;;;;;;;29.90;13.37;;;4.20;99.90;;;;;;4190373;28;20468;-60
2020/12/18 09:41:56;;;;;;;24.27;11.30;;;4.20;99.90;;;;;;4189860;28;20463;-60
2020/12/18 09:43:57;;;;;;;21.00;9.43;;;4.20;99.90;;;;;;4190225;28;20468;-60
2020/12/18 09:45:58;;;;;;;20.73;9.57;;;4.20;99.90;;;;;;4188096;28;20480;-59
2020/12/18 09:48:00;;;;;;;75.03;32.60;;;4.30;99.90;;;;;;4188768;28;20468;-60
2020/12/18 09:50:02;;;;;;;45.73;20.87;;;4.40;99.90;;;;;;4191111;28;20804;-59
2020/12/18 09:52:03;;;;;;;35.33;15.87;;;4.50;99.90;;;;;;4193532;28;20475;-59
2020/12/18 09:54:05;;;;;;;26.90;13.33;;;4.60;99.90;;;;;;4190491;28;21238;-59
2020/12/18 09:56:08;;;;;;;28.00;12.60;;;4.70;99.90;;;;;;4187843;28;20526;-59
2020/12/18 09:58:09;;;;;;;24.07;10.87;;;4.70;99.90;;;;;;4188367;28;20476;-59
2020/12/18 10:00:11;;;;;;;22.70;10.20;;;4.70;99.90;;;;;;4188363;28;20494;-60
2020/12/18 10:02:12;;;;;;;20.37;9.73;;;4.70;99.90;;;;;;4188156;28;20480;-58
2020/12/18 10:04:14;;;;;;;21.55;10.07;;;4.80;99.90;;;;;;4186377;28;20459;-61
2020/12/18 10:06:16;;;;;;;21.07;9.97;;;4.80;99.90;;;;;;4188293;28;20242;-59
2020/12/18 10:08:17;;;;;;;16.53;8.43;;;4.80;99.90;;;;;;4187982;28;20468;-59
2020/12/18 10:10:19;;;;;;;19.50;8.83;;;4.80;99.90;;;;;;4188111;28;20824;-58
2020/12/18 10:12:20;;;;;;;17.90;8.37;;;4.80;99.90;;;;;;4187023;28;20473;-59
2020/12/18 10:14:22;;;;;;;19.73;9.13;;;4.70;99.90;;;;;;4186912;28;20479;-59
2020/12/18 10:16:23;;;;;;;20.70;8.70;;;4.80;99.90;;;;;;4190459;28;20467;-59
2020/12/18 10:18:27;;;;;;;15.93;8.40;;;4.80;99.90;;;;;;4190701;28;20500;-58
2020/12/18 10:20:28;;;;;;;28.97;14.17;;;4.90;99.90;;;;;;4192009;28;20468;-62
2020/12/18 10:22:30;;;;;;;38.80;17.63;;;4.90;99.90;;;;;;4187871;28;20543;-59
2020/12/18 10:24:31;;;;;;;33.63;14.30;;;4.90;99.90;;;;;;4190191;28;20547;-59
2020/12/18 10:26:33;;;;;;;33.72;16.40;;;5.00;99.90;;;;;;4183692;28;20878;-59
2020/12/18 10:28:34;;;;;;;36.00;18.93;;;5.00;99.90;;;;;;4184988;28;20464;-58
2020/12/18 10:30:37;;;;;;;31.35;17.15;;;5.20;99.90;;;;;;4186881;28;20460;-59
2020/12/18 10:32:38;;;;;;;26.83;13.23;;;5.40;99.90;;;;;;4189017;28;20245;-59
2020/12/18 10:34:40;;;;;;;29.03;13.40;;;5.40;99.90;;;;;;4186636;28;20469;-59
2020/12/18 10:36:41;;;;;;;35.33;15.35;;;5.40;99.90;;;;;;4187127;28;20465;-59